Time;durP1;ratioP1;P1;durP2;ratioP2;P2;SDS_P1;SDS_P2;PMS_P1;PMS_P2;Temp;Humidity;BMP_temperature;BMP_pressure;BME280_temperature;BME280_humidity;BME280_pressure;Samples;Min_cycle;Max_cycle;Signal;HPM_P1;HPM_P2
2021/07/17 00:00:47;;;;;;;5.45;5.08;;;;;;;22.29;71.31;99332.39;1707526;81;21460;-55
2021/07/17 00:03:13;;;;;;;5.15;4.85;;;;;;;22.29;71.21;99338.42;1740914;80;20942;-55
2021/07/17 00:05:40;;;;;;;5.12;4.80;;;;;;;22.28;71.26;99336.19;1713180;81;20914;-55
2021/07/17 00:08:06;;;;;;;5.85;5.35;;;;;;;22.24;71.34;99333.39;1738646;80;21089;-55
2021/07/17 00:10:43;;;;;;;5.15;4.70;;;;;;;22.22;71.35;99340.91;1740123;81;20911;-55
2021/07/17 00:13:11;;;;;;;4.25;4.00;;;;;;;22.18;71.27;99339.01;1707245;82;20958;-55
2021/07/17 00:15:38;;;;;;;7.70;4.28;;;;;;;22.15;71.33;99339.82;1760202;79;20908;-55
2021/07/17 00:18:04;;;;;;;4.17;3.83;;;;;;;22.12;71.39;99340.13;1698647;82;21356;-55
2021/07/17 00:20:32;;;;;;;5.25;3.27;;;;;;;22.09;71.46;99336.34;1760608;79;21765;-55
2021/07/17 00:22:58;;;;;;;6.25;4.12;;;;;;;22.07;71.46;99338.37;1759437;79;21354;-57
2021/07/17 00:25:24;;;;;;;6.25;4.20;;;;;;;22.07;71.43;99338.37;1759410;79;21615;-57
2021/07/17 00:27:52;;;;;;;4.62;4.22;;;;;;;22.06;71.45;99333.91;1760507;79;21485;-57
2021/07/17 00:30:18;;;;;;;4.35;3.95;;;;;;;22.05;71.51;99332.18;1761774;79;20911;-57
2021/07/17 00:32:45;;;;;;;6.28;5.03;;;;;;;22.04;71.45;99334.56;1763783;80;21299;-57
2021/07/17 00:35:11;;;;;;;4.83;4.40;;;;;;;22.01;71.42;99333.52;1758632;79;21630;-57
2021/07/17 00:37:38;;;;;;;5.00;4.62;;;;;;;21.98;71.45;99339.31;1754983;79;21623;-57
2021/07/17 00:40:06;;;;;;;6.62;4.67;;;;;;;21.95;71.52;99336.33;1721292;81;21074;-57
2021/07/17 00:42:34;;;;;;;4.22;3.87;;;;;;;21.93;71.57;99333.42;1761569;79;20950;-57
2021/07/17 00:45:00;;;;;;;6.95;4.60;;;;;;;21.91;71.65;99332.20;1757089;79;21477;-56
2021/07/17 00:47:27;;;;;;;4.40;4.10;;;;;;;21.90;71.70;99327.22;1755595;79;21105;-56
2021/07/17 00:49:53;;;;;;;5.50;5.20;;;;;;;21.90;71.81;99327.73;1755455;79;21034;-56
2021/07/17 00:52:19;;;;;;;5.75;5.35;;;;;;;21.88;71.84;99327.88;1754385;79;21134;-57
2021/07/17 00:54:46;;;;;;;5.50;5.00;;;;;;;21.87;71.99;99322.55;1757628;79;21105;-57
2021/07/17 00:57:12;;;;;;;5.65;4.67;;;;;;;21.84;72.15;99325.12;1757444;80;22648;-56
2021/07/17 00:59:39;;;;;;;7.42;4.55;;;;;;;21.84;72.24;99321.00;1751858;79;22204;-56
2021/07/17 01:02:05;;;;;;;5.72;4.90;;;;;;;;;;1757716;79;21409;-56
2021/07/17 01:04:32;;;;;;;5.60;5.10;;;;;;;21.84;72.16;99326.48;1736783;80;21050;-56
2021/07/17 01:06:59;;;;;;;5.03;4.72;;;;;;;21.84;72.06;99326.98;1758784;79;21552;-57
2021/07/17 01:09:26;;;;;;;5.70;4.30;;;;;;;21.81;72.12;99328.66;1759502;79;21144;-56
2021/07/17 01:11:56;;;;;;;5.33;4.90;;;;;;;21.79;72.21;99327.44;1755379;79;21034;-57
2021/07/17 01:14:24;;;;;;;5.47;4.87;;;;;;;21.78;72.30;99324.34;1754901;80;21085;-57
2021/07/17 01:16:50;;;;;;;5.35;5.03;;;;;;;21.78;72.38;99326.22;1735568;80;20958;-57
2021/07/17 01:19:16;;;;;;;6.42;5.58;;;;;;;21.76;72.39;99329.65;1760968;79;21044;-56
2021/07/17 01:21:43;;;;;;;5.42;5.12;;;;;;;21.75;72.43;99332.03;1754446;79;21269;-57
2021/07/17 01:24:09;;;;;;;5.80;5.00;;;;;;;21.74;72.49;99328.94;1753182;79;21523;-57
2021/07/17 01:26:36;;;;;;;6.53;5.90;;;;;;;21.73;72.49;99329.44;1754683;79;21062;-56
2021/07/17 01:29:02;;;;;;;8.20;5.62;;;;;;;21.72;72.51;99332.33;1734750;80;21062;-57
2021/07/17 01:31:29;;;;;;;4.62;4.40;;;;;;;21.70;72.47;99332.48;1757679;79;20994;-56
2021/07/17 01:33:55;;;;;;;6.55;5.92;;;;;;;21.69;72.40;99330.75;1752520;79;21116;-57
2021/07/17 01:36:21;;;;;;;4.50;4.20;;;;;;;21.67;72.42;99330.58;1755967;80;21075;-55
2021/07/17 01:38:47;;;;;;;6.15;5.55;;;;;;;21.64;72.44;99331.73;1755932;79;21113;-55
2021/07/17 01:41:14;;;;;;;5.33;5.12;;;;;;;21.64;72.49;99331.73;1753621;79;21180;-55
2021/07/17 01:43:41;;;;;;;5.08;4.65;;;;;;;21.63;72.59;99327.77;1754872;79;21168;-54
2021/07/17 01:46:07;;;;;;;6.55;5.65;;;;;;;21.62;72.65;99329.65;1695777;82;22614;-55
2021/07/17 01:48:33;;;;;;;5.05;4.65;;;;;;;21.61;72.68;99329.80;1755199;80;20974;-54
2021/07/17 01:51:00;;;;;;;6.40;5.45;;;;;;;21.60;72.66;99329.47;1721430;80;21492;-55
2021/07/17 01:53:26;;;;;;;6.67;6.25;;;;;;;21.60;72.72;99330.34;1756526;79;21014;-54
2021/07/17 01:55:53;;;;;;;6.95;6.45;;;;;;;21.60;72.72;99331.70;1754804;79;21129;-54
2021/07/17 01:58:19;;;;;;;5.78;5.47;;;;;;;21.60;72.83;99327.59;1755183;79;21116;-56
2021/07/17 02:00:46;;;;;;;7.45;5.83;;;;;;;21.58;72.74;99321.41;1754723;79;21189;-55
2021/07/17 02:03:12;;;;;;;6.12;4.67;;;;;;;21.56;72.75;99326.67;1722820;81;21010;-56
2021/07/17 02:05:39;;;;;;;4.90;4.35;;;;;;;21.53;72.78;99329.20;1760388;79;21075;-54
2021/07/17 02:08:05;;;;;;;5.25;4.75;;;;;;;21.51;72.78;99332.12;1755607;79;21101;-55
2021/07/17 02:10:33;;;;;;;5.10;4.78;;;;;;;21.48;72.76;99330.18;1755355;79;21511;-55
2021/07/17 02:13:12;;;;;;;4.53;4.30;;;;;;;21.45;72.85;99331.34;1752519;79;21530;-54
2021/07/17 02:15:45;;;;;;;5.15;4.85;;;;;;;21.44;72.96;99329.61;1737241;80;21077;-55
2021/07/17 02:18:14;;;;;;;4.97;4.45;;;;;;;21.44;73.15;99330.12;1735725;80;21125;-55
2021/07/17 02:20:41;;;;;;;3.83;3.62;;;;;;;21.44;73.20;99328.75;1735868;80;20973;-55
2021/07/17 02:23:09;;;;;;;7.22;4.60;;;;;;;21.43;73.19;99330.66;1738265;80;21016;-54
2021/07/17 02:25:35;;;;;;;8.93;5.53;;;;;;;21.44;73.26;99330.12;1733250;80;21781;-55
2021/07/17 02:28:01;;;;;;;6.17;5.75;;;;;;;21.45;73.36;99323.13;1733097;80;21029;-54
2021/07/17 02:30:28;;;;;;;7.10;6.60;;;;;;;21.48;73.35;99328.81;1734050;80;21088;-55
2021/07/17 02:32:54;;;;;;;6.72;6.33;;;;;;;21.48;73.45;99328.30;1739602;80;21794;-54
2021/07/17 02:35:20;;;;;;;6.62;5.97;;;;;;;21.49;73.62;99325.92;1735367;80;21074;-55
2021/07/17 02:37:47;;;;;;;6.45;5.75;;;;;;;21.49;73.73;99323.19;1733038;80;21113;-55
2021/07/17 02:40:14;;;;;;;5.03;4.72;;;;;;;21.51;73.80;99325.78;1736226;80;21057;-55
2021/07/17 02:42:41;;;;;;;5.60;5.30;;;;;;;21.53;73.86;99327.83;1738651;80;21527;-55
2021/07/17 02:45:09;;;;;;;5.65;5.12;;;;;;;21.56;73.90;99329.41;1735232;80;21039;-54
2021/07/17 02:47:37;;;;;;;5.12;4.70;;;;;;;21.57;73.92;99329.27;1734777;80;21744;-55
2021/07/17 02:50:05;;;;;;;4.80;4.50;;;;;;;21.59;73.98;99322.27;1737945;80;21524;-55
2021/07/17 02:52:31;;;;;;;6.67;4.78;;;;;;;21.61;74.06;99324.32;1738720;80;21289;-55
2021/07/17 02:54:57;;;;;;;5.17;4.83;;;;;;;21.64;74.15;99318.55;1735952;80;21450;-55
2021/07/17 02:57:24;;;;;;;4.90;4.62;;;;;;;21.66;74.20;99322.00;1704135;82;21580;-55
2021/07/17 02:59:52;;;;;;;5.15;4.85;;;;;;;21.70;74.29;99322.02;1699841;82;20954;-54
2021/07/17 03:02:18;;;;;;;4.85;4.55;;;;;;;21.73;74.36;99317.11;1737642;80;20917;-55
2021/07/17 03:04:44;;;;;;;5.65;5.10;;;;;;;21.78;74.35;99324.84;1742870;80;20850;-55
2021/07/17 03:07:13;;;;;;;4.67;4.45;;;;;;;21.80;74.46;99320.08;1738394;80;20950;-55
2021/07/17 03:09:40;;;;;;;4.42;3.77;;;;;;;21.81;74.40;99324.05;1737997;80;21683;-55
2021/07/17 03:12:07;;;;;;;6.40;4.58;;;;;;;21.84;74.41;99322.88;1736868;80;21257;-55
2021/07/17 03:14:33;;;;;;;5.62;4.70;;;;;;;21.87;74.30;99321.18;1747628;79;21485;-54
2021/07/17 03:17:00;;;;;;;6.78;4.70;;;;;;;21.89;74.34;99316.41;1758049;79;20912;-54
2021/07/17 03:19:27;;;;;;;4.75;4.00;;;;;;;21.93;74.49;99316.47;1759187;79;21414;-54
2021/07/17 03:21:53;;;;;;;5.83;4.03;;;;;;;21.97;74.53;99312.89;1757380;79;21371;-55
2021/07/17 03:24:20;;;;;;;5.35;4.58;;;;;;;22.00;74.60;99312.11;1758270;79;21098;-55
2021/07/17 03:26:46;;;;;;;8.15;5.65;;;;;;;22.07;74.74;99317.81;1761769;79;20919;-55
2021/07/17 03:29:13;;;;;;;4.67;4.30;;;;;;;22.13;74.88;99308.95;1757373;79;21085;-55
2021/07/17 03:31:40;;;;;;;6.03;5.17;;;;;;;22.18;74.91;99309.36;1718056;81;21083;-55
2021/07/17 03:34:06;;;;;;;5.87;5.28;;;;;;;22.23;74.67;99315.22;1755368;79;21106;-56
2021/07/17 03:36:32;;;;;;;6.40;5.87;;;;;;;22.27;74.31;99313.89;1757507;79;21236;-55
2021/07/17 03:38:59;;;;;;;4.20;4.00;;;;;;;22.30;74.25;99303.96;1756263;79;21031;-54
2021/07/17 03:41:25;;;;;;;5.50;5.30;;;;;;;22.35;74.35;99308.48;1754662;79;21109;-55
2021/07/17 03:43:52;;;;;;;5.87;5.45;;;;;;;22.39;74.60;99309.00;1693371;82;22701;-56
2021/07/17 03:46:18;;;;;;;5.35;5.15;;;;;;;22.42;74.83;99312.30;1693051;82;21829;-56
2021/07/17 03:48:45;;;;;;;7.80;7.28;;;;;;;22.49;75.17;99302.91;1756721;79;21764;-55
2021/07/17 03:51:12;;;;;;;8.73;7.85;;;;;;;22.56;75.46;99305.36;1757043;79;21413;-54
2021/07/17 03:53:39;;;;;;;6.50;6.17;;;;;;;22.65;75.56;99300.28;1763332;79;20987;-56
2021/07/17 03:56:06;;;;;;;6.42;6.00;;;;;;;22.72;75.61;99298.61;1753969;79;21102;-55
2021/07/17 03:58:33;;;;;;;7.30;6.80;;;;;;;22.79;75.62;99300.25;1752169;79;21112;-56
2021/07/17 04:00:59;;;;;;;7.15;6.75;;;;;;;22.87;75.81;99305.78;1752935;79;21580;-54
2021/07/17 04:03:25;;;;;;;7.90;7.30;;;;;;;22.95;76.12;99305.83;1754992;79;21054;-54
2021/07/17 04:05:52;;;;;;;7.65;7.25;;;;;;;23.04;76.14;99304.84;1717525;81;21093;-55
2021/07/17 04:08:19;;;;;;;7.37;6.97;;;;;;;23.12;76.11;99303.52;1758877;79;21109;-55
2021/07/17 04:10:46;;;;;;;9.25;8.40;;;;;;;23.21;76.25;99306.64;1759434;80;21080;-55
2021/07/17 04:13:12;;;;;;;7.50;7.00;;;;;;;23.30;76.37;99311.66;1755659;79;21540;-55
2021/07/17 04:15:40;;;;;;;8.45;7.75;;;;;;;23.38;76.19;99311.17;1762333;79;21033;-55
2021/07/17 04:18:07;;;;;;;8.15;7.22;;;;;;;23.48;75.91;99313.75;1763377;79;21084;-55
2021/07/17 04:20:34;;;;;;;7.03;6.42;;;;;;;23.60;75.84;99311.61;1764021;79;21010;-54
2021/07/17 04:23:00;;;;;;;7.30;6.80;;;;;;;23.70;75.56;99316.45;1705697;82;21563;-55
2021/07/17 04:25:27;;;;;;;7.55;6.83;;;;;;;23.82;75.36;99321.95;1699626;82;21172;-55
2021/07/17 04:27:53;;;;;;;7.58;7.08;;;;;;;23.93;74.90;99324.39;1736083;79;21069;-53
2021/07/17 04:30:20;;;;;;;8.48;7.87;;;;;;;24.05;74.40;99321.67;1764346;79;21077;-54
2021/07/17 04:32:46;;;;;;;9.15;8.45;;;;;;;24.19;74.04;99321.50;1760514;79;21121;-54
2021/07/17 04:35:13;;;;;;;8.85;8.10;;;;;;;24.30;73.54;99320.34;1767679;79;21527;-55
2021/07/17 04:37:40;;;;;;;8.88;8.20;;;;;;;24.40;73.13;99316.91;1764144;79;22760;-55
2021/07/17 04:40:08;;;;;;;8.45;7.92;;;;;;;24.50;72.74;99321.69;1767569;80;21045;-54
2021/07/17 04:42:35;;;;;;;8.13;7.33;;;;;;;24.60;72.48;99325.64;1767305;80;21029;-55
2021/07/17 04:45:03;;;;;;;9.05;8.20;;;;;;;24.67;72.34;99313.77;1763763;79;21131;-55
2021/07/17 04:47:29;;;;;;;9.83;8.83;;;;;;;24.75;72.15;99311.00;1767027;79;21086;-54
2021/07/17 04:49:55;;;;;;;8.28;7.58;;;;;;;24.84;72.12;99311.33;1729931;81;21108;-54
2021/07/17 04:52:22;;;;;;;9.73;8.93;;;;;;;24.95;72.22;99323.04;1762380;79;21100;-55
2021/07/17 04:54:48;;;;;;;8.75;8.05;;;;;;;25.05;71.94;99320.95;1761958;79;21129;-54
2021/07/17 04:57:15;;;;;;;9.60;8.90;;;;;;;25.14;71.79;99317.14;1760050;79;21050;-54
2021/07/17 04:59:42;;;;;;;9.43;8.55;;;;;;;25.25;71.65;99321.77;1765349;79;21053;-54
2021/07/17 05:02:08;;;;;;;9.65;8.93;;;;;;;25.34;71.32;99320.35;1767579;79;22055;-55
2021/07/17 05:04:35;;;;;;;8.95;8.35;;;;;;;25.44;70.68;99325.96;1766278;79;22315;-55
2021/07/17 05:07:01;;;;;;;8.38;7.78;;;;;;;25.54;70.41;99323.85;1761099;79;21049;-54
2021/07/17 05:09:28;;;;;;;8.48;7.78;;;;;;;25.63;70.05;99324.19;1762550;79;21128;-55
2021/07/17 05:11:54;;;;;;;7.58;6.97;;;;;;;25.71;69.75;99319.14;1760462;79;21025;-55
2021/07/17 05:14:21;;;;;;;6.50;6.00;;;;;;;25.81;69.82;99323.92;1758671;79;21132;-56
2021/07/17 05:16:47;;;;;;;6.90;6.00;;;;;;;25.91;69.69;99324.55;1754976;79;21065;-57
2021/07/17 05:19:17;;;;;;;7.25;6.37;;;;;;;26.01;69.32;99328.45;1752608;79;21071;-56
2021/07/17 05:21:54;;;;;;;7.10;6.53;;;;;;;26.11;68.84;99327.70;1759724;79;20887;-54
2021/07/17 05:24:21;;;;;;;6.70;6.30;;;;;;;26.20;67.36;99327.12;1727270;82;21074;-55
2021/07/17 05:26:47;;;;;;;7.20;6.70;;;;;;;26.29;66.93;99324.13;1725953;82;21807;-56
2021/07/17 05:29:13;;;;;;;6.58;6.17;;;;;;;26.36;66.66;99323.75;1722522;82;21097;-55
2021/07/17 05:31:41;;;;;;;5.58;5.28;;;;;;;26.44;66.48;99325.58;1724067;82;21093;-56
2021/07/17 05:34:08;;;;;;;7.17;6.58;;;;;;;26.51;66.14;99330.68;1728460;82;21439;-55
2021/07/17 05:36:34;;;;;;;6.72;6.12;;;;;;;26.58;65.84;99330.27;1725415;82;21046;-55
2021/07/17 05:39:01;;;;;;;7.08;6.53;;;;;;;26.65;65.71;99335.38;1727299;82;21291;-56
2021/07/17 05:41:27;;;;;;;6.17;5.60;;;;;;;26.75;65.55;99336.49;1725668;82;21722;-55
2021/07/17 05:43:54;;;;;;;6.78;6.28;;;;;;;26.83;65.24;99339.70;1712952;81;21517;-54
2021/07/17 05:46:20;;;;;;;6.05;5.30;;;;;;;26.90;65.04;99335.12;1712650;81;21082;-56
2021/07/17 05:48:46;;;;;;;6.10;5.15;;;;;;;26.96;64.36;99332.53;1712227;81;21111;-55
2021/07/17 05:51:14;;;;;;;5.65;5.25;;;;;;;27.02;63.92;99328.14;1710164;82;22479;-56
2021/07/17 05:53:41;;;;;;;7.87;6.70;;;;;;;27.10;63.39;99334.95;1710595;81;22387;-57
2021/07/17 05:56:08;;;;;;;6.47;5.87;;;;;;;27.17;63.38;99340.58;1712186;81;21059;-56
2021/07/17 05:58:36;;;;;;;6.60;5.92;;;;;;;27.23;63.17;99341.19;1716264;81;21704;-57
2021/07/17 06:01:02;;;;;;;5.65;5.17;;;;;;;27.30;62.37;99340.78;1718820;81;22050;-57
2021/07/17 06:03:29;;;;;;;7.42;6.83;;;;;;;27.36;62.39;99340.02;1716589;81;21095;-56
2021/07/17 06:05:55;;;;;;;7.65;6.97;;;;;;;27.42;61.39;99351.67;1716558;81;21297;-56
2021/07/17 06:08:21;;;;;;;7.40;6.72;;;;;;;27.48;60.96;99345.37;1718148;81;20968;-57
2021/07/17 06:10:47;;;;;;;8.30;6.35;;;;;;;27.53;61.00;99347.05;1716146;81;20963;-55
2021/07/17 06:13:14;;;;;;;6.08;5.55;;;;;;;27.58;60.98;99346.49;1717044;81;21540;-55
2021/07/17 06:15:40;;;;;;;6.62;6.20;;;;;;;27.63;60.77;99337.98;1715961;81;21712;-56
2021/07/17 06:18:07;;;;;;;7.72;6.60;;;;;;;27.69;60.36;99334.43;1711918;81;21763;-57
2021/07/17 06:20:33;;;;;;;7.25;6.67;;;;;;;27.75;59.86;99338.31;1708225;82;21365;-56
2021/07/17 06:23:00;;;;;;;7.35;6.78;;;;;;;27.79;59.37;99331.36;1715270;81;21828;-57
2021/07/17 06:25:26;;;;;;;7.40;5.25;;;;;;;27.83;59.50;99337.67;1710111;81;21079;-57
2021/07/17 06:27:52;;;;;;;5.10;4.67;;;;;;;27.90;58.80;99335.53;1710404;81;22559;-57
2021/07/17 06:30:19;;;;;;;5.47;5.10;;;;;;;27.94;58.58;99338.23;1711597;81;21046;-55
2021/07/17 06:32:45;;;;;;;7.45;5.17;;;;;;;27.98;57.56;99334.03;1669715;83;21063;-56
2021/07/17 06:35:12;;;;;;;5.78;5.25;;;;;;;28.03;57.21;99331.53;1710188;81;21086;-56
2021/07/17 06:37:41;;;;;;;7.83;6.37;;;;;;;28.06;56.33;99336.68;1710416;81;21608;-57
2021/07/17 06:40:12;;;;;;;5.10;4.67;;;;;;;28.09;55.58;99336.27;1708952;81;21166;-54
2021/07/17 06:42:44;;;;;;;6.10;5.65;;;;;;;28.15;55.84;99338.27;1710678;81;21050;-56
2021/07/17 06:45:11;;;;;;;5.25;5.05;;;;;;;28.19;56.42;99336.31;1711681;81;21042;-55
2021/07/17 06:47:38;;;;;;;6.65;5.20;;;;;;;28.26;56.62;99330.84;1712696;81;21405;-55
2021/07/17 06:50:06;;;;;;;7.00;6.45;;;;;;;28.31;56.15;99326.11;1708663;81;21065;-54
2021/07/17 06:52:32;;;;;;;7.40;6.70;;;;;;;28.38;56.36;99325.65;1708655;81;21548;-56
2021/07/17 06:54:58;;;;;;;5.90;4.90;;;;;;;28.44;56.10;99326.23;1710928;81;21073;-54
2021/07/17 06:57:24;;;;;;;3.55;3.40;;;;;;;28.48;55.66;99327.03;1707520;81;21177;-56
2021/07/17 06:59:52;;;;;;;6.87;3.67;;;;;;;28.53;54.05;99327.28;1708337;81;21081;-57
2021/07/17 07:02:19;;;;;;;3.90;3.47;;;;;;;28.57;53.79;99320.83;1706104;81;21160;-57
2021/07/17 07:04:45;;;;;;;8.53;5.65;;;;;;;28.62;53.50;99321.08;1709930;81;23055;-57
2021/07/17 07:07:11;;;;;;;4.70;3.83;;;;;;;28.69;53.69;99323.89;1708408;81;21431;-54
2021/07/17 07:09:37;;;;;;;3.08;2.87;;;;;;;28.75;52.39;99325.88;1710090;81;21070;-57
2021/07/17 07:12:06;;;;;;;2.62;2.42;;;;;;;28.79;51.24;99325.83;1709948;81;21182;-57
2021/07/17 07:14:33;;;;;;;4.67;2.22;;;;;;;28.85;50.66;99326.39;1710158;81;21731;-57
2021/07/17 07:16:59;;;;;;;3.87;2.10;;;;;;;28.91;50.66;99321.45;1705994;81;21408;-57
2021/07/17 07:19:25;;;;;;;5.55;2.40;;;;;;;28.97;50.32;99324.80;1710066;81;21129;-56
2021/07/17 07:21:52;;;;;;;3.05;2.60;;;;;;;29.05;50.95;99326.55;1707903;81;21181;-57
2021/07/17 07:24:18;;;;;;;2.95;2.83;;;;;;;29.10;50.59;99327.64;1712503;81;21079;-53
2021/07/17 07:26:45;;;;;;;4.05;3.50;;;;;;;29.15;50.48;99326.52;1704202;81;21114;-56
2021/07/17 07:29:11;;;;;;;4.35;2.77;;;;;;;29.20;50.07;99331.44;1707760;81;21128;-54
2021/07/17 07:31:38;;;;;;;3.72;3.05;;;;;;;29.24;49.80;99331.37;1704980;81;21464;-55
2021/07/17 07:34:04;;;;;;;3.37;3.17;;;;;;;29.28;49.84;99330.75;1708120;81;21624;-55
2021/07/17 07:36:32;;;;;;;4.03;3.75;;;;;;;29.35;49.68;99335.83;1702675;81;21138;-54
2021/07/17 07:38:58;;;;;;;4.33;3.10;;;;;;;29.39;48.72;99332.13;1703213;81;21465;-56
2021/07/17 07:41:25;;;;;;;3.30;3.00;;;;;;;29.42;48.66;99330.34;1704820;81;23060;-56
2021/07/17 07:43:51;;;;;;;3.17;2.98;;;;;;;29.47;49.58;99329.72;1707022;81;21536;-56
2021/07/17 07:46:17;;;;;;;3.05;2.85;;;;;;;29.54;49.17;99331.98;1703579;81;21415;-56
2021/07/17 07:48:45;;;;;;;4.15;3.10;;;;;;;29.62;48.34;99331.28;1705870;81;21487;-54
2021/07/17 07:51:13;;;;;;;3.45;3.15;;;;;;;29.70;48.26;99326.09;1706485;81;21174;-55
2021/07/17 07:53:39;;;;;;;4.22;3.92;;;;;;;29.77;48.97;99320.59;1705958;81;21115;-57
2021/07/17 07:56:06;;;;;;;5.35;2.75;;;;;;;29.84;48.88;99325.09;1704208;81;21105;-55
2021/07/17 07:58:32;;;;;;;4.37;2.70;;;;;;;29.87;48.85;99321.89;1703455;81;21126;-53
2021/07/17 08:00:58;;;;;;;3.12;2.87;;;;;;;29.95;48.20;99325.03;1703564;82;21452;-56
2021/07/17 08:03:24;;;;;;;3.77;3.58;;;;;;;30.01;47.79;99322.30;1701341;81;21002;-56
2021/07/17 08:05:51;;;;;;;3.77;3.52;;;;;;;30.07;47.64;99326.16;1705509;81;22308;-54
2021/07/17 08:08:17;;;;;;;4.28;3.52;;;;;;;30.14;47.21;99323.39;1703327;81;21598;-56
2021/07/17 08:10:43;;;;;;;4.30;3.90;;;;;;;30.15;47.62;99322.33;1699834;82;21354;-56
2021/07/17 08:13:11;;;;;;;5.28;4.28;;;;;;;30.18;47.69;99321.91;1704815;81;21106;-55
2021/07/17 08:15:37;;;;;;;4.10;3.83;;;;;;;30.20;47.12;99323.95;1705028;81;21553;-56
2021/07/17 08:18:04;;;;;;;6.40;3.72;;;;;;;30.20;47.33;99326.17;1706802;81;21055;-53
2021/07/17 08:20:30;;;;;;;5.97;3.30;;;;;;;30.20;47.06;99327.56;1666151;84;21090;-55
2021/07/17 08:22:57;;;;;;;8.58;4.17;;;;;;;30.23;47.29;99324.38;1702913;81;21112;-54
2021/07/17 08:25:23;;;;;;;3.40;3.08;;;;;;;30.30;46.69;99320.22;1643198;85;21333;-55
2021/07/17 08:27:49;;;;;;;4.15;3.85;;;;;;;30.37;46.51;99322.46;1655429;84;21273;-55
2021/07/17 08:30:17;;;;;;;4.65;3.20;;;;;;;30.45;46.22;99316.73;1670451;83;21221;-55
2021/07/17 08:32:43;;;;;;;2.98;2.77;;;;;;;30.53;46.87;99310.14;1653300;85;20951;-54
2021/07/17 08:35:10;;;;;;;4.60;3.60;;;;;;;30.62;46.47;99313.89;1643980;85;20979;-54
2021/07/17 08:37:36;;;;;;;3.87;3.55;;;;;;;30.67;46.09;99314.63;1646103;85;21121;-57
2021/07/17 08:40:04;;;;;;;4.03;3.67;;;;;;;30.65;46.00;99318.14;1655062;84;21356;-57
2021/07/17 08:42:36;;;;;;;4.90;3.20;;;;;;;30.58;45.77;99313.13;1656664;84;21088;-54
2021/07/17 08:45:06;;;;;;;5.22;3.20;;;;;;;30.53;45.93;99309.61;1660259;84;20920;-56
2021/07/17 08:47:38;;;;;;;4.25;3.20;;;;;;;30.45;46.03;99309.23;1662938;84;20932;-56
2021/07/17 08:50:02;;;;;;;3.92;3.62;;;;;;;30.41;45.56;99309.34;1666743;84;20999;-57
2021/07/17 08:52:29;;;;;;;3.70;3.47;;;;;;;30.44;46.25;99309.47;1665062;84;20999;-55
2021/07/17 08:55:02;;;;;;;5.40;4.97;;;;;;;30.47;46.37;99302.08;1638076;85;21103;-54
2021/07/17 08:57:24;;;;;;;5.30;4.42;;;;;;;30.50;45.46;99305.83;1665354;84;20995;-56
2021/07/17 08:59:52;;;;;;;4.22;3.98;;;;;;;30.52;45.36;99305.66;1664122;84;20948;-56
2021/07/17 09:02:19;;;;;;;4.22;3.83;;;;;;;30.51;45.23;99299.75;1665600;84;20947;-54
2021/07/17 09:04:45;;;;;;;4.42;4.12;;;;;;;30.54;45.41;99302.97;1667285;83;20979;-54
2021/07/17 09:07:11;;;;;;;4.22;3.85;;;;;;;30.60;45.09;99302.14;1663943;84;21149;-55
2021/07/17 09:09:38;;;;;;;4.75;4.33;;;;;;;30.69;44.60;99303.63;1664578;84;21021;-56
2021/07/17 09:12:23;;;;;;;3.40;3.20;;;;;;;30.79;43.98;99299.86;1663418;84;20955;-53
2021/07/17 09:14:49;;;;;;;4.05;3.83;;;;;;;30.89;44.09;99295.80;1663398;85;21034;-56
2021/07/17 09:17:25;;;;;;;4.22;4.00;;;;;;;31.00;43.98;99293.23;1667448;84;20949;-55
2021/07/17 09:19:58;;;;;;;4.05;3.35;;;;;;;31.04;44.52;99301.47;1660732;84;21114;-55
2021/07/17 09:22:34;;;;;;;7.55;4.83;;;;;;;31.09;44.27;99300.30;1664757;84;21240;-54
2021/07/17 09:25:11;;;;;;;5.35;4.95;;;;;;;31.08;44.08;99301.91;1656942;84;21047;-55
2021/07/17 09:27:37;;;;;;;6.60;4.53;;;;;;;31.06;44.42;99299.30;1652407;84;21119;-56
2021/07/17 09:30:08;;;;;;;5.53;3.75;;;;;;;31.03;43.59;99300.28;1651709;84;21118;-57
2021/07/17 09:32:35;;;;;;;4.33;4.08;;;;;;;31.03;43.89;99289.17;1655276;84;21797;-54
2021/07/17 09:35:14;;;;;;;6.35;5.95;;;;;;;31.07;43.69;99293.23;1654190;84;21569;-54
2021/07/17 09:37:41;;;;;;;4.85;3.47;;;;;;;31.10;43.71;99287.26;1638619;85;21101;-54
2021/07/17 09:40:10;;;;;;;7.78;4.10;;;;;;;31.15;43.71;99290.23;1663608;82;21098;-54
2021/07/17 09:42:44;;;;;;;7.17;3.87;;;;;;;31.22;44.31;99284.11;1710180;81;20942;-56
2021/07/17 09:45:10;;;;;;;3.55;3.15;;;;;;;31.30;42.77;99279.73;1706714;81;21473;-53
2021/07/17 09:47:37;;;;;;;3.35;3.05;;;;;;;31.38;42.12;99272.53;1704743;81;21575;-53
2021/07/17 09:50:14;;;;;;;4.53;3.72;;;;;;;31.46;41.94;99272.29;1714861;81;21086;-53
2021/07/17 09:52:42;;;;;;;4.75;3.67;;;;;;;31.52;41.88;99263.06;1715815;81;21086;-54
2021/07/17 09:55:12;;;;;;;4.12;3.20;;;;;;;31.53;41.80;99270.33;1707370;81;21074;-55
2021/07/17 09:57:39;;;;;;;4.78;4.25;;;;;;;31.50;41.94;99268.52;1710825;81;21554;-52
2021/07/17 10:00:19;;;;;;;4.97;4.75;;;;;;;31.39;42.80;99270.05;1711685;81;21482;-54
2021/07/17 10:02:46;;;;;;;4.85;3.87;;;;;;;31.30;42.86;99274.17;1708461;81;21093;-54
2021/07/17 10:05:16;;;;;;;7.28;6.67;;;;;;;31.20;42.17;99270.45;1706248;81;21141;-56
2021/07/17 10:07:44;;;;;;;5.50;5.10;;;;;;;31.19;42.46;99267.35;1710245;82;21124;-54
2021/07/17 10:10:12;;;;;;;5.40;3.70;;;;;;;31.21;43.10;99267.14;1709623;81;21113;-55
2021/07/17 10:12:40;;;;;;;5.20;4.70;;;;;;;31.29;43.17;99257.70;1710653;81;21109;-53
2021/07/17 10:15:10;;;;;;;14.85;6.92;;;;;;;31.40;43.02;99250.90;1716378;81;21060;-57
2021/07/17 10:17:39;;;;;;;68.90;31.85;;;;;;;31.50;43.25;99253.22;1708550;81;21372;-53
2021/07/17 10:20:11;;;;;;;39.35;15.60;;;;;;;31.61;44.41;99251.14;1711009;81;20987;-56
2021/07/17 10:22:37;;;;;;;3.83;3.37;;;;;;;31.67;43.02;99244.72;1664293;84;21110;-53
2021/07/17 10:25:07;;;;;;;5.33;3.98;;;;;;;31.70;41.82;99242.89;1708200;81;21059;-56
2021/07/17 10:27:34;;;;;;;3.60;3.27;;;;;;;31.72;42.72;99246.85;1707033;81;21149;-54
2021/07/17 10:30:03;;;;;;;14.87;4.80;;;;;;;31.72;43.36;99241.28;1705137;81;21091;-56
2021/07/17 10:32:30;;;;;;;9.58;3.95;;;;;;;31.71;42.67;99236.80;1707286;81;21066;-54
2021/07/17 10:34:57;;;;;;;5.53;3.50;;;;;;;31.68;43.03;99235.30;1705486;81;21134;-54
2021/07/17 10:37:33;;;;;;;2.95;2.80;;;;;;;31.67;43.09;99229.41;1702750;81;21050;-54
2021/07/17 10:40:10;;;;;;;8.20;4.78;;;;;;;31.71;42.35;99228.45;1702845;81;21079;-58
2021/07/17 10:42:38;;;;;;;25.20;7.80;;;;;;;31.71;41.30;99220.09;1705621;81;21391;-57
2021/07/17 10:45:06;;;;;;;3.58;2.95;;;;;;;31.70;42.09;99226.73;1707076;81;21042;-57
2021/07/17 10:47:37;;;;;;;3.62;2.98;;;;;;;31.70;42.54;99225.34;1706247;81;22281;-58
2021/07/17 10:50:06;;;;;;;2.05;1.95;;;;;;;31.65;41.99;99221.81;1702143;81;21066;-57
2021/07/17 10:52:41;;;;;;;2.10;1.90;;;;;;;31.58;40.23;99217.66;1710099;81;21603;-59
2021/07/17 10:55:32;;;;;;;4.00;2.52;;;;;;;31.52;40.51;99210.74;1702192;81;21118;-59
2021/07/17 10:58:12;;;;;;;3.77;1.92;;;;;;;31.51;39.34;99208.50;1700500;81;21475;-60
2021/07/17 11:00:56;;;;;;;2.50;1.75;;;;;;;31.51;39.56;99199.30;1703312;81;21567;-60
2021/07/17 11:03:28;;;;;;;6.15;2.12;;;;;;;31.54;39.03;99194.70;1704789;81;21103;-59
2021/07/17 11:05:54;;;;;;;4.60;1.90;;;;;;;31.60;39.64;99195.19;1708850;82;21040;-59
2021/07/17 11:08:33;;;;;;;2.35;2.15;;;;;;;31.64;40.37;99190.08;1706994;82;20948;-58
2021/07/17 11:11:00;;;;;;;1.65;1.50;;;;;;;31.70;39.33;99185.86;1705005;81;21066;-60
2021/07/17 11:13:35;;;;;;;1.98;1.60;;;;;;;31.70;37.82;99182.22;1703308;81;21073;-58
2021/07/17 11:16:05;;;;;;;1.72;1.62;;;;;;;31.72;36.97;99180.08;1707968;81;20983;-58
2021/07/17 11:18:34;;;;;;;3.20;1.32;;;;;;;31.75;36.23;99177.67;1706964;81;21449;-59
2021/07/17 11:21:03;;;;;;;43.10;5.83;;;;;;;31.78;36.25;99172.21;1707882;81;20983;-59
2021/07/17 11:23:40;;;;;;;6.28;1.75;;;;;;;31.83;36.97;99160.71;1710543;81;20963;-60
2021/07/17 11:26:12;;;;;;;2.58;1.45;;;;;;;31.92;36.20;99164.92;1709503;81;21000;-61
2021/07/17 11:31:34;;;;;;;2.05;1.87;;;;;;;32.13;37.41;99143.36;1790702;78;22450;-59
2021/07/17 11:34:20;;;;;;;2.47;2.15;;;;;;;32.14;36.25;99148.71;1759799;79;21001;-59
2021/07/17 11:36:52;;;;;;;3.58;2.35;;;;;;;32.20;36.36;99151.14;1762309;79;22605;-58
2021/07/17 11:39:28;;;;;;;3.85;2.72;;;;;;;32.26;37.25;99155.26;1764693;79;21522;-60